Time,TemperatureF,DewpointF,PressureIn,WindDirection,WindDirectionDegrees,WindSpeedMPH,WindSpeedGustMPH,Humidity,HourlyPrecipIn,Conditions,Clouds,dailyrainin,SoftwareType,DateUTC
2013-06-27 00:00:00,68.6,50.0,29.86,NNE,28,9.0,12.0,51,0.00,,,0.00,weatherlink.com 1.10,2013-06-27 06:00:00,
2013-06-27 00:15:00,67.4,50.0,29.87,NNE,28,4.0,7.0,54,0.00,,,0.00,weatherlink.com 1.10,2013-06-27 06:15:00,
2013-06-27 00:30:00,67.6,50.0,29.87,NNE,30,10.0,13.0,54,0.00,,,0.00,weatherlink.com 1.10,2013-06-27 06:30:00,
2013-06-27 00:45:00,66.9,51.0,29.87,NNE,26,7.0,12.0,56,0.00,,,0.00,weatherlink.com 1.10,2013-06-27 06:45:00,
2013-06-27 01:00:00,65.8,50.0,29.88,NNE,28,4.0,10.0,58,0.00,,,0.00,weatherlink.com 1.10,2013-06-27 07:00:00,
2013-06-27 01:15:00,65.4,50.0,29.88,NNE,28,6.0,8.0,58,0.00,,,0.00,weatherlink.com 1.10,2013-06-27 07:15:00,
2013-06-27 01:30:00,64.5,50.0,29.88,NNE,28,2.0,4.0,59,0.00,,,0.00,weatherlink.com 1.10,2013-06-27 07:30:00,
2013-06-27 01:45:00,62.9,50.0,29.88,NNE,28,6.0,7.0,62,0.00,,,0.00,weatherlink.com 1.10,2013-06-27 07:45:00,
2013-06-27 02:00:00,61.5,49.0,29.89,NNE,28,4.0,6.0,63,0.00,,,0.00,weatherlink.com 1.10,2013-06-27 08:00:00,
2013-06-27 02:15:00,62.1,48.0,29.89,NNE,28,2.0,6.0,61,0.00,,,0.00,weatherlink.com 1.10,2013-06-27 08:15:00,
2013-06-27 02:30:00,61.1,48.0,29.89,NNE,28,2.0,6.0,63,0.00,,,0.00,weatherlink.com 1.10,2013-06-27 08:30:00,
2013-06-27 02:45:00,61.2,48.0,29.90,NNE,28,0.0,4.0,62,0.00,,,0.00,weatherlink.com 1.10,2013-06-27 08:45:00,
2013-06-27 03:01:00,60.7,48.0,29.90,NNE,28,0.0,0.0,63,0.00,,,0.00,weatherlink.com 1.10,2013-06-27 09:01:00,
2013-06-27 03:16:00,59.7,48.0,29.90,NNE,28,0.0,4.0,65,0.00,,,0.00,weatherlink.com 1.10,2013-06-27 09:16:00,
2013-06-27 03:31:00,58.6,48.0,29.90,NNE,28,3.0,5.0,68,0.00,,,0.00,weatherlink.com 1.10,2013-06-27 09:31:00,
2013-06-27 03:46:00,58.6,48.0,29.90,NNE,28,5.0,7.0,67,0.00,,,0.00,weatherlink.com 1.10,2013-06-27 09:46:00,
2013-06-27 04:01:00,58.7,47.0,29.90,NNE,28,0.0,4.0,66,0.00,,,0.00,weatherlink.com 1.10,2013-06-27 10:01:00,
2013-06-27 04:16:00,56.8,47.0,29.90,NNE,28,4.0,4.0,69,0.00,,,0.00,weatherlink.com 1.10,2013-06-27 10:16:00,
2013-06-27 04:31:00,55.3,47.0,29.91,NNE,28,4.0,5.0,73,0.00,,,0.00,weatherlink.com 1.10,2013-06-27 10:31:00,
2013-06-27 04:46:00,56.1,47.0,29.91,NNE,28,6.0,7.0,72,0.00,,,0.00,weatherlink.com 1.10,2013-06-27 10:46:00,
2013-06-27 05:01:00,56.3,47.0,29.91,NNE,28,4.0,6.0,72,0.00,,,0.00,weatherlink.com 1.10,2013-06-27 11:01:00,
2013-06-27 05:16:00,57.8,48.0,29.91,NNE,28,3.0,5.0,69,0.00,,,0.00,weatherlink.com 1.10,2013-06-27 11:16:00,
2013-06-27 05:31:00,56.6,47.0,29.92,NNE,28,3.0,4.0,71,0.00,,,0.00,weatherlink.com 1.10,2013-06-27 11:31:00,
2013-06-27 05:46:00,56.3,47.0,29.92,NNE,30,0.0,0.0,72,0.00,,,0.00,weatherlink.com 1.10,2013-06-27 11:46:00,
2013-06-27 06:01:00,56.7,48.0,29.93,NNE,30,0.0,1.0,72,0.00,,,0.00,weatherlink.com 1.10,2013-06-27 12:01:00,
2013-06-27 06:16:00,57.6,48.0,29.93,NNE,30,0.0,0.0,70,0.00,,,0.00,weatherlink.com 1.10,2013-06-27 12:16:00,
2013-06-27 06:31:00,58.6,48.0,29.94,NNE,30,1.0,5.0,68,0.00,,,0.00,weatherlink.com 1.10,2013-06-27 12:31:00,
2013-06-27 06:46:00,60.2,50.0,29.94,NNE,30,0.0,3.0,69,0.00,,,0.00,weatherlink.com 1.10,2013-06-27 12:46:00,
2013-06-27 07:01:00,61.8,51.0,29.95,NNE,30,0.0,3.0,67,0.00,,,0.00,weatherlink.com 1.10,2013-06-27 13:01:00,
2013-06-27 07:16:00,63.2,51.0,29.95,NNE,30,2.0,5.0,65,0.00,,,0.00,weatherlink.com 1.10,2013-06-27 13:16:00,
2013-06-27 07:31:00,64.0,51.0,29.95,NNE,30,1.0,4.0,63,0.00,,,0.00,weatherlink.com 1.10,2013-06-27 13:31:00,
2013-06-27 07:46:00,66.2,52.0,29.95,NNE,30,1.0,3.0,60,0.00,,,0.00,weatherlink.com 1.10,2013-06-27 13:46:00,
2013-06-27 08:01:00,67.8,50.0,29.95,NNE,30,0.0,3.0,54,0.00,,,0.00,weatherlink.com 1.10,2013-06-27 14:01:00,
2013-06-27 08:16:00,68.4,51.0,29.94,NNE,30,3.0,4.0,54,0.00,,,0.00,weatherlink.com 1.10,2013-06-27 14:16:00,
2013-06-27 08:31:00,68.6,51.0,29.94,NNE,30,2.0,4.0,53,0.00,,,0.00,weatherlink.com 1.10,2013-06-27 14:31:00,
2013-06-27 08:46:00,70.1,50.0,29.95,NNE,30,3.0,6.0,49,0.00,,,0.00,weatherlink.com 1.10,2013-06-27 14:46:00,
2013-06-27 09:01:00,70.9,50.0,29.95,NNE,30,3.0,6.0,48,0.00,,,0.00,weatherlink.com 1.10,2013-06-27 15:01:00,
2013-06-27 09:16:00,71.8,50.0,29.94,NNE,30,4.0,5.0,47,0.00,,,0.00,weatherlink.com 1.10,2013-06-27 15:16:00,
2013-06-27 09:31:00,73.0,51.0,29.94,NNE,30,3.0,8.0,46,0.00,,,0.00,weatherlink.com 1.10,2013-06-27 15:31:00,
2013-06-27 09:46:00,74.5,50.0,29.93,NNE,30,6.0,9.0,43,0.00,,,0.00,weatherlink.com 1.10,2013-06-27 15:46:00,
2013-06-27 10:01:00,75.3,52.0,29.93,NNE,30,6.0,8.0,44,0.00,,,0.00,weatherlink.com 1.10,2013-06-27 16:01:00,
2013-06-27 10:16:00,76.3,51.0,29.92,NNE,30,4.0,9.0,42,0.00,,,0.00,weatherlink.com 1.10,2013-06-27 16:16:00,
2013-06-27 10:31:00,77.6,50.0,29.92,NNE,30,6.0,10.0,38,0.00,,,0.00,weatherlink.com 1.10,2013-06-27 16:31:00,
2013-06-27 10:46:00,78.9,50.0,29.92,NNE,30,6.0,14.0,37,0.00,,,0.00,weatherlink.com 1.10,2013-06-27 16:46:00,
2013-06-27 11:01:00,79.7,50.0,29.92,NE,34,8.0,13.0,35,0.00,,,0.00,weatherlink.com 1.10,2013-06-27 17:01:00,
2013-06-27 11:16:00,81.2,49.0,29.92,NNE,32,12.0,15.0,33,0.00,,,0.00,weatherlink.com 1.10,2013-06-27 17:16:00,
2013-06-27 11:31:00,82.5,50.0,29.92,NNE,26,11.0,15.0,32,0.00,,,0.00,weatherlink.com 1.10,2013-06-27 17:31:00,
2013-06-27 11:46:00,82.9,50.0,29.91,NNE,19,11.0,17.0,32,0.00,,,0.00,weatherlink.com 1.10,2013-06-27 17:46:00,
2013-06-27 12:01:00,84.0,50.0,29.91,NNE,17,15.0,17.0,31,0.00,,,0.00,weatherlink.com 1.10,2013-06-27 18:01:00,
2013-06-27 12:16:00,84.7,50.0,29.91,North,5,13.0,19.0,30,0.00,,,0.00,weatherlink.com 1.10,2013-06-27 18:16:00,
2013-06-27 12:31:00,84.7,50.0,29.91,NNE,32,11.0,19.0,30,0.00,,,0.00,weatherlink.com 1.10,2013-06-27 18:31:00,
2013-06-27 12:46:00,84.5,51.0,29.91,NNE,24,16.0,23.0,31,0.00,,,0.00,weatherlink.com 1.10,2013-06-27 18:46:00,
2013-06-27 13:01:00,85.2,50.0,29.91,NNE,20,15.0,23.0,30,0.00,,,0.00,weatherlink.com 1.10,2013-06-27 19:01:00,
2013-06-27 13:16:00,85.3,50.0,29.91,NNE,28,15.0,22.0,29,0.00,,,0.00,weatherlink.com 1.10,2013-06-27 19:16:00,
2013-06-27 13:31:00,85.8,49.0,29.91,NNE,28,13.0,24.0,28,0.00,,,0.00,weatherlink.com 1.10,2013-06-27 19:31:00,
2013-06-27 13:46:00,86.0,48.0,29.91,NE,53,14.0,22.0,27,0.00,,,0.00,weatherlink.com 1.10,2013-06-27 19:46:00,
2013-06-27 14:02:00,86.5,49.0,29.90,NE,46,17.0,23.0,27,0.00,,,0.00,weatherlink.com 1.10,2013-06-27 20:02:00,
2013-06-27 14:17:00,86.2,47.0,29.91,NE,43,11.0,20.0,26,0.00,,,0.00,weatherlink.com 1.10,2013-06-27 20:17:00,
2013-06-27 14:32:00,85.9,48.0,29.90,NNE,33,13.0,23.0,27,0.00,,,0.00,weatherlink.com 1.10,2013-06-27 20:32:00,
2013-06-27 14:47:00,85.7,51.0,29.90,NNE,18,16.0,26.0,30,0.00,,,0.00,weatherlink.com 1.10,2013-06-27 20:47:00,
2013-06-27 15:02:00,86.1,52.0,29.90,NE,36,19.0,24.0,31,0.00,,,0.00,weatherlink.com 1.10,2013-06-27 21:02:00,
2013-06-27 15:17:00,85.9,53.0,29.90,NNE,29,16.0,24.0,32,0.00,,,0.00,weatherlink.com 1.10,2013-06-27 21:17:00,
2013-06-27 15:32:00,85.8,53.0,29.90,NE,35,18.0,25.0,32,0.00,,,0.00,weatherlink.com 1.10,2013-06-27 21:32:00,
2013-06-27 15:47:00,86.6,53.0,29.90,NE,45,22.0,24.0,31,0.00,,,0.00,weatherlink.com 1.10,2013-06-27 21:47:00,
2013-06-27 16:02:00,86.5,52.0,29.91,NE,43,21.0,23.0,31,0.00,,,0.00,weatherlink.com 1.10,2013-06-27 22:02:00,
2013-06-27 16:17:00,87.2,52.0,29.91,NE,40,18.0,22.0,30,0.00,,,0.00,weatherlink.com 1.10,2013-06-27 22:17:00,
2013-06-27 16:32:00,86.5,52.0,29.90,NE,42,18.0,20.0,30,0.00,,,0.00,weatherlink.com 1.10,2013-06-27 22:32:00,
2013-06-27 16:47:00,86.6,52.0,29.90,NE,50,13.0,19.0,30,0.00,,,0.00,weatherlink.com 1.10,2013-06-27 22:47:00,
2013-06-27 17:02:00,87.3,52.0,29.90,NE,41,12.0,18.0,30,0.00,,,0.00,weatherlink.com 1.10,2013-06-27 23:02:00,
2013-06-27 17:17:00,87.5,51.0,29.90,NE,39,8.0,18.0,28,0.00,,,0.00,weatherlink.com 1.10,2013-06-27 23:17:00,
2013-06-27 17:32:00,88.7,52.0,29.91,NNE,15,9.0,12.0,28,0.00,,,0.00,weatherlink.com 1.10,2013-06-27 23:32:00,
2013-06-27 17:47:00,88.2,51.0,29.90,NNE,17,14.0,18.0,28,0.00,,,0.00,weatherlink.com 1.10,2013-06-27 23:47:00,
2013-06-27 18:02:00,88.5,51.0,29.90,NNE,32,12.0,18.0,28,0.00,,,0.00,weatherlink.com 1.10,2013-06-28 00:02:00,
2013-06-27 18:17:00,88.6,52.0,29.90,NE,41,7.0,21.0,28,0.00,,,0.00,weatherlink.com 1.10,2013-06-28 00:17:00,
2013-06-27 18:47:00,86.3,50.0,29.90,NE,51,16.0,21.0,29,0.00,,,0.00,weatherlink.com 1.10,2013-06-28 00:47:00,
2013-06-27 19:17:00,85.1,49.0,29.90,NE,39,13.0,18.0,29,0.00,,,0.00,weatherlink.com 1.10,2013-06-28 01:17:00,
2013-06-27 19:47:00,84.5,50.0,29.91,NNE,29,8.0,13.0,30,0.00,,,0.00,weatherlink.com 1.10,2013-06-28 01:47:00,
2013-06-27 20:47:00,79.9,51.0,29.93,NE,35,6.0,10.0,36,0.00,,,0.00,weatherlink.com 1.10,2013-06-28 02:47:00,
2013-06-27 21:02:00,78.9,50.0,29.93,NNE,26,7.0,10.0,37,0.00,,,0.00,weatherlink.com 1.10,2013-06-28 03:02:00,
2013-06-27 21:17:00,77.9,51.0,29.94,NNE,20,4.0,7.0,39,0.00,,,0.00,weatherlink.com 1.10,2013-06-28 03:17:00,
2013-06-27 21:32:00,76.9,51.0,29.95,NNE,17,7.0,9.0,40,0.00,,,0.00,weatherlink.com 1.10,2013-06-28 03:32:00,
2013-06-27 21:47:00,76.8,51.0,29.95,North,5,5.0,9.0,40,0.00,,,0.00,weatherlink.com 1.10,2013-06-28 03:47:00,
2013-06-27 22:02:00,76.7,51.0,29.96,North,360,8.0,10.0,40,0.00,,,0.00,weatherlink.com 1.10,2013-06-28 04:02:00,
2013-06-27 22:17:00,76.2,50.0,29.96,North,360,4.0,8.0,40,0.00,,,0.00,weatherlink.com 1.10,2013-06-28 04:17:00,
2013-06-27 22:32:00,75.1,50.0,29.97,North,360,0.0,5.0,42,0.00,,,0.00,weatherlink.com 1.10,2013-06-28 04:32:00,
2013-06-27 22:47:00,74.1,50.0,29.97,North,360,0.0,2.0,43,0.00,,,0.00,weatherlink.com 1.10,2013-06-28 04:47:00,
2013-06-27 23:02:00,74.9,50.0,29.97,North,360,3.0,6.0,42,0.00,,,0.00,weatherlink.com 1.10,2013-06-28 05:02:00,
2013-06-27 23:17:00,74.1,50.0,29.97,North,360,3.0,3.0,43,0.00,,,0.00,weatherlink.com 1.10,2013-06-28 05:17:00,
2013-06-27 23:32:00,72.1,50.0,29.98,North,360,2.0,4.0,46,0.00,,,0.00,weatherlink.com 1.10,2013-06-28 05:32:00,
2013-06-27 23:48:00,69.7,50.0,29.98,North,360,0.0,1.0,50,0.00,,,0.00,weatherlink.com 1.10,2013-06-28 05:48:00,